createdAt,value
2023-03-29T00:01:35.105Z,100.00
2023-03-29T00:04:02.915Z,100.00
2023-03-29T00:06:29.233Z,100.00
2023-03-29T00:08:55.408Z,100.00
2023-03-29T00:11:21.512Z,100.00
2023-03-29T00:13:47.705Z,100.00
2023-03-29T00:16:13.935Z,100.00
2023-03-29T00:18:40.117Z,100.00
2023-03-29T00:21:06.286Z,100.00
2023-03-29T00:23:32.416Z,100.00
2023-03-29T00:25:58.595Z,100.00
2023-03-29T00:28:24.799Z,100.00
2023-03-29T00:30:51.010Z,100.00
2023-03-29T00:33:17.167Z,100.00
2023-03-29T00:35:43.339Z,100.00
2023-03-29T00:38:09.478Z,100.00
2023-03-29T00:40:35.612Z,100.00
2023-03-29T00:43:01.789Z,100.00
2023-03-29T00:45:27.927Z,100.00
2023-03-29T00:47:54.185Z,100.00
2023-03-29T00:50:20.393Z,100.00
2023-03-29T00:52:46.566Z,100.00
2023-03-29T00:55:12.705Z,100.00
2023-03-29T00:57:38.912Z,100.00
2023-03-29T01:00:05.174Z,100.00
2023-03-29T01:02:31.464Z,100.00
2023-03-29T01:04:57.725Z,100.00
2023-03-29T01:07:23.952Z,100.00
2023-03-29T01:09:50.159Z,100.00
2023-03-29T01:12:16.282Z,100.00
2023-03-29T01:14:42.471Z,100.00
2023-03-29T01:17:08.650Z,100.00
2023-03-29T01:19:34.804Z,100.00
2023-03-29T01:22:00.940Z,100.00
2023-03-29T01:24:27.094Z,100.00
2023-03-29T01:26:53.264Z,100.00
2023-03-29T01:29:19.424Z,100.00
2023-03-29T01:31:45.639Z,100.00
2023-03-29T01:34:11.969Z,100.00
2023-03-29T01:36:38.143Z,100.00
2023-03-29T01:39:04.362Z,100.00
2023-03-29T01:41:30.515Z,100.00
2023-03-29T01:43:56.658Z,100.00
2023-03-29T01:46:22.806Z,100.00
2023-03-29T01:48:48.984Z,100.00
2023-03-29T01:51:15.158Z,100.00
2023-03-29T01:53:41.335Z,100.00
2023-03-29T01:56:07.515Z,100.00
2023-03-29T01:58:33.649Z,100.00
2023-03-29T02:01:00.129Z,100.00
2023-03-29T02:03:26.575Z,100.00
2023-03-29T02:05:52.852Z,100.00
2023-03-29T02:08:19.019Z,100.00
2023-03-29T02:10:45.190Z,100.00
2023-03-29T02:13:11.353Z,100.00
2023-03-29T02:15:37.481Z,100.00
2023-03-29T02:18:03.718Z,100.00
2023-03-29T02:20:29.910Z,100.00
2023-03-29T02:22:56.047Z,100.00
2023-03-29T02:25:22.177Z,100.00
2023-03-29T02:27:48.384Z,100.00
2023-03-29T02:30:14.514Z,100.00
2023-03-29T02:32:40.675Z,100.00
2023-03-29T02:35:06.865Z,100.00
2023-03-29T02:37:33.031Z,100.00
2023-03-29T02:39:59.196Z,100.00
2023-03-29T02:42:25.351Z,100.00
2023-03-29T02:44:51.485Z,100.00
2023-03-29T02:47:17.710Z,100.00
2023-03-29T02:49:43.901Z,100.00
2023-03-29T02:52:10.072Z,100.00
2023-03-29T02:54:36.278Z,100.00
2023-03-29T02:57:02.485Z,100.00
2023-03-29T02:59:28.652Z,100.00
2023-03-29T03:01:54.847Z,100.00
2023-03-29T03:04:21.019Z,100.00
2023-03-29T03:06:47.150Z,100.00
2023-03-29T03:09:13.302Z,100.00
2023-03-29T03:11:39.468Z,100.00
2023-03-29T03:14:05.640Z,100.00
2023-03-29T03:16:31.869Z,100.00
2023-03-29T03:18:58.038Z,100.00
2023-03-29T03:21:24.206Z,100.00
2023-03-29T03:23:50.415Z,100.00
2023-03-29T03:26:16.611Z,100.00
2023-03-29T03:28:42.776Z,100.00
2023-03-29T03:31:08.955Z,100.00
2023-03-29T03:33:35.149Z,100.00
2023-03-29T03:36:01.296Z,100.00
2023-03-29T03:38:27.447Z,100.00
2023-03-29T03:40:53.583Z,100.00
2023-03-29T03:43:19.723Z,100.00
2023-03-29T03:45:45.907Z,100.00
2023-03-29T03:48:12.149Z,100.00
2023-03-29T03:50:38.342Z,100.00
2023-03-29T03:53:04.477Z,100.00
2023-03-29T03:55:30.645Z,100.00
2023-03-29T03:57:56.811Z,100.00
2023-03-29T04:00:22.969Z,100.00
2023-03-29T04:02:49.262Z,100.00
2023-03-29T04:05:15.521Z,100.00
2023-03-29T04:07:41.659Z,100.00
2023-03-29T04:10:07.842Z,100.00
2023-03-29T04:12:33.959Z,100.00
2023-03-29T04:15:00.196Z,100.00
2023-03-29T04:17:26.385Z,100.00
2023-03-29T04:19:52.595Z,100.00
2023-03-29T04:22:18.769Z,100.00
2023-03-29T04:24:44.934Z,100.00
2023-03-29T04:27:11.084Z,100.00
2023-03-29T04:29:37.243Z,100.00
2023-03-29T04:32:03.378Z,100.00
2023-03-29T04:34:29.534Z,100.00
2023-03-29T04:36:55.736Z,100.00
2023-03-29T04:39:21.880Z,100.00
2023-03-29T04:41:48.010Z,100.00
2023-03-29T04:44:14.286Z,100.00
2023-03-29T04:46:40.557Z,100.00
2023-03-29T04:49:06.804Z,100.00
2023-03-29T04:51:32.962Z,100.00
2023-03-29T04:53:59.088Z,100.00
2023-03-29T04:56:25.507Z,100.00
2023-03-29T04:58:51.692Z,100.00
2023-03-29T05:01:17.849Z,100.00
2023-03-29T05:03:44.075Z,100.00
2023-03-29T05:06:10.222Z,100.00
2023-03-29T05:08:36.439Z,100.00
2023-03-29T05:11:02.728Z,100.00
2023-03-29T05:13:29.034Z,100.00
2023-03-29T05:15:55.266Z,100.00
2023-03-29T05:18:21.460Z,100.00
2023-03-29T05:20:47.630Z,100.00
2023-03-29T05:23:13.805Z,100.00
2023-03-29T05:25:40.273Z,100.00
2023-03-29T05:28:06.421Z,100.00
2023-03-29T05:30:32.614Z,100.00
2023-03-29T05:32:58.829Z,100.00
2023-03-29T05:35:25.060Z,100.00
2023-03-29T05:37:51.281Z,100.00
2023-03-29T05:40:17.455Z,100.00
2023-03-29T05:42:43.648Z,100.00
2023-03-29T05:45:09.845Z,100.00
2023-03-29T05:47:36.118Z,100.00
2023-03-29T05:50:02.363Z,100.00
2023-03-29T05:52:28.691Z,100.00
2023-03-29T05:54:54.843Z,100.00
2023-03-29T05:57:21.011Z,100.00
2023-03-29T05:59:47.194Z,100.00
2023-03-29T06:02:13.364Z,100.00
2023-03-29T06:04:39.597Z,100.00
2023-03-29T06:07:05.775Z,100.00
2023-03-29T06:09:31.992Z,100.00
2023-03-29T06:11:58.196Z,100.00
2023-03-29T06:14:24.382Z,100.00
2023-03-29T06:16:50.625Z,100.00
2023-03-29T06:19:16.808Z,100.00
2023-03-29T06:21:43.022Z,100.00
2023-03-29T06:24:09.181Z,100.00
2023-03-29T06:26:35.361Z,100.00
2023-03-29T06:29:01.583Z,100.00
2023-03-29T06:31:27.887Z,100.00
2023-03-29T06:33:54.098Z,100.00
2023-03-29T06:36:20.312Z,100.00
2023-03-29T06:38:46.500Z,100.00
2023-03-29T06:41:12.640Z,100.00
2023-03-29T06:43:38.785Z,100.00
2023-03-29T06:46:05.036Z,100.00
2023-03-29T06:48:31.254Z,100.00
2023-03-29T06:50:57.451Z,100.00
2023-03-29T06:53:23.644Z,100.00
2023-03-29T06:55:49.837Z,100.00
2023-03-29T06:58:15.968Z,100.00
2023-03-29T07:00:42.132Z,100.00
2023-03-29T07:03:08.394Z,100.00
2023-03-29T07:05:34.634Z,100.00
2023-03-29T07:08:00.923Z,100.00
2023-03-29T07:10:27.061Z,100.00
2023-03-29T07:12:53.266Z,100.00
2023-03-29T07:15:19.416Z,100.00
2023-03-29T07:17:45.623Z,100.00
2023-03-29T07:20:11.834Z,100.00
2023-03-29T07:22:38.011Z,100.00
2023-03-29T07:25:04.194Z,100.00
2023-03-29T07:27:30.409Z,100.00
2023-03-29T07:29:56.645Z,100.00
2023-03-29T07:32:22.854Z,100.00
2023-03-29T07:34:49.025Z,100.00
2023-03-29T07:37:15.195Z,100.00
2023-03-29T07:39:41.376Z,100.00
2023-03-29T07:42:07.524Z,100.00
2023-03-29T07:44:33.695Z,100.00
2023-03-29T07:46:59.850Z,100.00
2023-03-29T07:49:26.005Z,100.00
2023-03-29T07:51:52.180Z,100.00
2023-03-29T07:54:18.362Z,100.00
2023-03-29T07:56:44.544Z,100.00
2023-03-29T07:59:10.697Z,100.00
2023-03-29T08:01:36.925Z,100.00
2023-03-29T08:04:03.229Z,100.00
2023-03-29T08:06:29.423Z,100.00
2023-03-29T08:08:55.579Z,100.00
2023-03-29T08:11:21.702Z,100.00
2023-03-29T08:13:47.850Z,100.00
2023-03-29T08:16:13.997Z,100.00
2023-03-29T08:18:40.267Z,100.00
2023-03-29T08:21:06.408Z,100.00
2023-03-29T08:23:32.574Z,100.00
2023-03-29T08:25:58.768Z,100.00
2023-03-29T08:28:24.902Z,100.00
2023-03-29T08:30:51.172Z,100.00
2023-03-29T08:33:17.433Z,100.00
2023-03-29T08:35:43.798Z,100.00
2023-03-29T08:38:10.061Z,100.00
2023-03-29T08:40:36.259Z,100.00
2023-03-29T08:43:02.422Z,100.00
2023-03-29T08:45:28.546Z,100.00
2023-03-29T08:47:54.789Z,100.00
2023-03-29T08:50:20.972Z,100.00
2023-03-29T08:52:47.163Z,100.00
2023-03-29T08:55:13.315Z,100.00
2023-03-29T08:57:39.571Z,100.00
2023-03-29T09:00:05.759Z,100.00
2023-03-29T09:02:32.034Z,100.00
2023-03-29T09:04:58.280Z,100.00
2023-03-29T09:07:26.542Z,100.00
2023-03-29T09:09:52.849Z,100.00
2023-03-29T09:12:19.009Z,100.00
2023-03-29T09:14:45.213Z,100.00
2023-03-29T09:17:11.417Z,100.00
2023-03-29T09:19:37.621Z,100.00
2023-03-29T09:22:03.808Z,100.00
2023-03-29T09:24:29.985Z,100.00
2023-03-29T09:26:56.169Z,100.00
2023-03-29T09:29:22.332Z,100.00
2023-03-29T09:31:48.552Z,100.00
2023-03-29T09:34:15.860Z,100.00
2023-03-29T09:36:42.372Z,87.95
2023-03-29T09:39:08.522Z,81.48
2023-03-29T09:41:34.662Z,79.71
2023-03-29T09:44:00.840Z,78.49
2023-03-29T09:46:26.973Z,79.36
2023-03-29T09:48:53.185Z,78.64
2023-03-29T09:51:19.376Z,81.74
2023-03-29T09:53:45.506Z,83.42
2023-03-29T09:56:11.712Z,83.13
2023-03-29T09:58:37.874Z,80.44
2023-03-29T10:01:04.194Z,82.68
2023-03-29T10:03:30.490Z,81.94
2023-03-29T10:05:56.682Z,83.32
2023-03-29T10:08:22.840Z,84.20
2023-03-29T10:10:49.053Z,88.62
2023-03-29T10:13:15.189Z,80.10
2023-03-29T10:15:41.361Z,80.82
2023-03-29T10:18:07.620Z,75.84
2023-03-29T10:20:33.884Z,77.65
2023-03-29T10:23:00.070Z,79.72
2023-03-29T10:25:26.257Z,80.83
2023-03-29T10:27:52.478Z,76.16
2023-03-29T10:30:18.649Z,79.50
2023-03-29T10:32:44.827Z,72.60
2023-03-29T10:35:11.029Z,70.15
2023-03-29T10:37:37.155Z,71.33
2023-03-29T10:40:03.279Z,68.18
2023-03-29T10:42:29.429Z,73.03
2023-03-29T10:44:55.634Z,69.91
2023-03-29T10:47:21.766Z,67.27
2023-03-29T10:49:48.178Z,66.31
2023-03-29T10:52:14.423Z,59.05
2023-03-29T10:54:40.645Z,59.30
2023-03-29T10:57:06.873Z,58.85
2023-03-29T10:59:33.014Z,62.03
2023-03-29T11:02:00.362Z,55.38
2023-03-29T11:04:26.643Z,52.40
2023-03-29T11:06:52.855Z,50.14
2023-03-29T11:09:22.642Z,52.68
2023-03-29T11:11:48.827Z,52.89
2023-03-29T11:14:14.949Z,53.37
2023-03-29T11:16:41.100Z,55.02
2023-03-29T11:19:13.196Z,55.41
2023-03-29T11:21:39.402Z,53.92
2023-03-29T11:24:05.539Z,55.78
2023-03-29T11:26:31.691Z,48.19
2023-03-29T11:28:57.886Z,47.94
2023-03-29T11:31:24.093Z,45.35
2023-03-29T11:33:50.240Z,45.52
2023-03-29T11:36:16.453Z,46.03
2023-03-29T11:38:45.105Z,47.99
2023-03-29T11:41:11.528Z,47.21
2023-03-29T11:43:37.752Z,45.36
2023-03-29T11:46:04.018Z,45.55
2023-03-29T11:48:30.298Z,46.17
2023-03-29T11:50:56.476Z,46.93
2023-03-29T11:53:22.690Z,45.50
2023-03-29T11:55:48.861Z,46.27
2023-03-29T11:58:15.052Z,48.15
2023-03-29T12:00:41.290Z,50.90
2023-03-29T12:03:07.556Z,48.50
2023-03-29T12:05:33.826Z,50.32
2023-03-29T12:08:00.048Z,50.83
2023-03-29T12:10:26.239Z,51.36
2023-03-29T12:12:52.417Z,51.98
2023-03-29T12:15:18.647Z,53.18
2023-03-29T12:17:44.917Z,53.32
2023-03-29T12:20:11.105Z,52.77
2023-03-29T12:22:37.248Z,49.51
2023-03-29T12:25:03.425Z,47.52
2023-03-29T12:27:29.596Z,47.34
2023-03-29T12:29:55.782Z,45.37
2023-03-29T12:32:22.151Z,45.87
2023-03-29T12:34:48.449Z,45.23
2023-03-29T12:37:14.672Z,48.51
2023-03-29T12:39:40.811Z,47.25
2023-03-29T12:42:07.034Z,46.11
2023-03-29T12:44:33.179Z,43.07
2023-03-29T12:46:59.352Z,41.94
2023-03-29T12:49:25.530Z,41.58
2023-03-29T12:51:51.657Z,42.70
2023-03-29T12:54:17.862Z,42.31
2023-03-29T12:56:44.101Z,40.34
2023-03-29T12:59:10.285Z,41.53
2023-03-29T13:01:36.570Z,44.71
2023-03-29T13:04:02.852Z,46.39
2023-03-29T13:06:29.012Z,48.28
2023-03-29T13:08:55.140Z,48.22
2023-03-29T13:11:21.424Z,48.62
2023-03-29T13:13:47.706Z,50.09
2023-03-29T13:16:13.939Z,49.66
2023-03-29T13:18:40.214Z,50.53
2023-03-29T13:21:06.408Z,51.01
2023-03-29T13:23:32.582Z,50.70
2023-03-29T13:25:58.775Z,52.03
2023-03-29T13:28:24.955Z,53.08
2023-03-29T13:30:51.097Z,50.44
2023-03-29T13:33:17.253Z,49.17
2023-03-29T13:35:43.459Z,48.29
2023-03-29T13:38:09.657Z,49.10
2023-03-29T13:40:35.874Z,46.73
2023-03-29T13:43:02.025Z,48.95
2023-03-29T13:45:28.198Z,46.35
2023-03-29T13:48:04.715Z,48.41
2023-03-29T13:50:31.844Z,50.40
2023-03-29T13:52:58.028Z,52.52
2023-03-29T13:55:24.214Z,54.00
2023-03-29T13:57:50.377Z,54.07
2023-03-29T14:00:16.586Z,55.19
2023-03-29T14:02:42.959Z,54.80
2023-03-29T14:05:09.242Z,54.39
2023-03-29T14:07:35.494Z,55.36
2023-03-29T14:10:01.708Z,55.62
2023-03-29T14:12:27.912Z,54.11
2023-03-29T14:14:59.301Z,53.76
2023-03-29T14:17:25.830Z,55.60
2023-03-29T14:19:52.022Z,58.65
2023-03-29T14:22:18.187Z,58.52
2023-03-29T14:24:44.311Z,60.15
2023-03-29T14:27:10.491Z,61.05
2023-03-29T14:29:38.942Z,61.76
2023-03-29T14:32:05.099Z,63.20
2023-03-29T14:34:31.285Z,65.00
2023-03-29T14:36:57.548Z,63.78
2023-03-29T14:39:23.762Z,63.00
2023-03-29T14:41:49.905Z,63.67
2023-03-29T14:44:16.084Z,64.46
2023-03-29T14:46:42.316Z,63.47
2023-03-29T14:49:08.546Z,64.90
2023-03-29T14:51:34.876Z,65.49
2023-03-29T14:54:01.070Z,65.56
2023-03-29T14:56:27.235Z,66.54
2023-03-29T14:58:53.395Z,68.73
2023-03-29T15:01:19.642Z,72.67
2023-03-29T15:03:45.865Z,73.08
2023-03-29T15:06:12.055Z,75.18
2023-03-29T15:08:38.241Z,77.34
2023-03-29T15:11:04.429Z,78.53
2023-03-29T15:13:30.591Z,81.56
2023-03-29T15:15:56.784Z,85.33
2023-03-29T15:18:22.980Z,84.31
2023-03-29T15:20:49.236Z,85.77
2023-03-29T15:23:15.420Z,87.18
2023-03-29T15:25:41.608Z,87.36
2023-03-29T15:28:07.761Z,86.39
2023-03-29T15:30:33.966Z,85.29
2023-03-29T15:33:00.254Z,84.89
2023-03-29T15:35:26.497Z,85.63
2023-03-29T15:37:52.651Z,85.68
2023-03-29T15:40:18.852Z,86.97
2023-03-29T15:42:45.067Z,87.32
2023-03-29T15:45:11.204Z,85.89
2023-03-29T15:47:37.386Z,82.72
2023-03-29T15:50:03.580Z,82.76
2023-03-29T15:52:29.736Z,81.67
2023-03-29T15:54:55.892Z,82.78
2023-03-29T15:57:22.109Z,77.16
2023-03-29T15:59:48.383Z,73.84
2023-03-29T16:02:14.565Z,72.74
2023-03-29T16:04:40.739Z,72.46
2023-03-29T16:07:06.885Z,71.31
2023-03-29T16:09:33.052Z,72.28
2023-03-29T16:11:59.214Z,72.44
2023-03-29T16:14:25.475Z,72.59
2023-03-29T16:16:51.831Z,73.09
2023-03-29T16:19:18.498Z,74.21
2023-03-29T16:21:44.680Z,75.74
2023-03-29T16:24:10.840Z,76.52
2023-03-29T16:26:37.035Z,78.34
2023-03-29T16:29:03.204Z,80.37
2023-03-29T16:31:29.350Z,80.13
2023-03-29T16:33:55.564Z,82.20
2023-03-29T16:36:21.779Z,84.52
2023-03-29T16:38:47.974Z,83.36
2023-03-29T16:41:14.142Z,86.05
2023-03-29T16:43:40.299Z,89.18
2023-03-29T16:46:06.782Z,90.16
2023-03-29T16:48:33.235Z,88.69
2023-03-29T16:50:59.345Z,90.78
2023-03-29T16:53:25.500Z,92.84
2023-03-29T16:55:51.673Z,93.82
2023-03-29T16:58:17.821Z,93.98
2023-03-29T17:00:46.394Z,93.90
2023-03-29T17:03:14.265Z,94.96
2023-03-29T17:05:40.479Z,98.39
2023-03-29T17:08:06.684Z,99.90
2023-03-29T17:10:32.827Z,93.60
2023-03-29T17:12:59.005Z,93.37
2023-03-29T17:15:25.146Z,94.69
2023-03-29T17:17:51.503Z,95.29
2023-03-29T17:20:17.729Z,90.86
2023-03-29T17:22:43.920Z,94.40
2023-03-29T17:25:10.077Z,94.98
2023-03-29T17:27:36.235Z,93.45
2023-03-29T17:30:02.393Z,92.97
2023-03-29T17:32:28.622Z,94.83
2023-03-29T17:34:54.813Z,96.36
2023-03-29T17:37:20.935Z,95.15
2023-03-29T17:39:47.151Z,97.77
2023-03-29T17:42:13.282Z,96.99
2023-03-29T17:44:39.428Z,94.79
2023-03-29T17:47:05.796Z,97.00
2023-03-29T17:49:33.514Z,95.28
2023-03-29T17:51:59.732Z,98.21
2023-03-29T17:54:25.939Z,100.00
2023-03-29T17:56:52.115Z,98.62
2023-03-29T17:59:18.330Z,97.43
2023-03-29T18:01:44.605Z,100.00
2023-03-29T18:04:10.791Z,97.37
2023-03-29T18:06:36.918Z,99.15
2023-03-29T18:09:03.152Z,98.96
2023-03-29T18:11:29.318Z,99.49
2023-03-29T18:13:55.506Z,100.00
2023-03-29T18:16:21.774Z,100.00
2023-03-29T18:18:48.350Z,100.00
2023-03-29T18:21:14.490Z,100.00
2023-03-29T18:23:40.685Z,100.00
2023-03-29T18:26:06.847Z,100.00
2023-03-29T18:28:32.974Z,100.00
2023-03-29T18:30:59.132Z,100.00
2023-03-29T18:33:25.339Z,100.00
2023-03-29T18:35:51.754Z,100.00
2023-03-29T18:38:18.048Z,100.00
2023-03-29T18:40:44.257Z,100.00
2023-03-29T18:43:10.447Z,100.00
2023-03-29T18:45:36.684Z,100.00
2023-03-29T18:48:02.957Z,100.00
2023-03-29T18:50:29.123Z,100.00
2023-03-29T18:52:55.236Z,100.00
2023-03-29T18:55:21.368Z,100.00
2023-03-29T18:57:47.547Z,100.00
2023-03-29T19:00:13.954Z,100.00
2023-03-29T19:02:40.307Z,100.00
2023-03-29T19:05:06.563Z,100.00
2023-03-29T19:07:32.738Z,100.00
2023-03-29T19:09:58.945Z,100.00
2023-03-29T19:12:25.099Z,100.00
2023-03-29T19:14:51.295Z,100.00
2023-03-29T19:17:17.555Z,100.00
2023-03-29T19:19:43.761Z,100.00
2023-03-29T19:22:09.946Z,100.00
2023-03-29T19:24:36.184Z,99.29
2023-03-29T19:27:02.371Z,98.96
2023-03-29T19:29:28.534Z,97.76
2023-03-29T19:31:54.815Z,97.41
2023-03-29T19:34:21.054Z,98.65
2023-03-29T19:36:47.184Z,100.00
2023-03-29T19:39:13.384Z,100.00
2023-03-29T19:41:41.398Z,100.00
2023-03-29T19:44:08.125Z,100.00
2023-03-29T19:46:34.304Z,100.00
2023-03-29T19:49:00.486Z,100.00
2023-03-29T19:51:26.655Z,100.00
2023-03-29T19:53:52.778Z,100.00
2023-03-29T19:56:18.897Z,100.00
2023-03-29T19:58:45.094Z,100.00
2023-03-29T20:01:11.300Z,100.00
2023-03-29T20:03:37.485Z,100.00
2023-03-29T20:06:03.856Z,100.00
2023-03-29T20:08:30.057Z,100.00
2023-03-29T20:10:56.236Z,100.00
2023-03-29T20:13:35.420Z,100.00
2023-03-29T20:16:04.722Z,100.00
2023-03-29T20:18:30.976Z,100.00
2023-03-29T20:20:57.204Z,100.00
2023-03-29T20:23:23.396Z,100.00
2023-03-29T20:25:49.580Z,100.00
2023-03-29T20:28:15.724Z,100.00
2023-03-29T20:30:41.899Z,100.00
2023-03-29T20:33:08.141Z,100.00
2023-03-29T20:35:34.440Z,100.00
2023-03-29T20:38:00.624Z,100.00
2023-03-29T20:40:26.830Z,100.00
2023-03-29T20:42:52.994Z,100.00
2023-03-29T20:45:19.208Z,100.00
2023-03-29T20:47:45.453Z,100.00
2023-03-29T20:50:11.674Z,100.00
2023-03-29T20:52:37.883Z,100.00
2023-03-29T20:55:04.046Z,100.00
2023-03-29T20:57:30.663Z,100.00
2023-03-29T20:59:56.875Z,100.00
2023-03-29T21:02:23.081Z,100.00
2023-03-29T21:04:49.297Z,100.00
2023-03-29T21:07:15.457Z,100.00
2023-03-29T21:09:41.598Z,100.00
2023-03-29T21:12:07.754Z,100.00
2023-03-29T21:14:33.898Z,100.00
2023-03-29T21:17:00.050Z,100.00
2023-03-29T21:19:26.231Z,100.00
2023-03-29T21:21:52.398Z,100.00
2023-03-29T21:24:18.605Z,100.00
2023-03-29T21:26:45.015Z,100.00
2023-03-29T21:29:11.226Z,100.00
2023-03-29T21:31:37.617Z,100.00
2023-03-29T21:34:03.826Z,100.00
2023-03-29T21:36:30.002Z,100.00
2023-03-29T21:38:56.472Z,100.00
2023-03-29T21:41:22.649Z,100.00
2023-03-29T21:43:48.828Z,100.00
2023-03-29T21:46:17.165Z,100.00
2023-03-29T21:48:43.447Z,100.00
2023-03-29T21:51:09.657Z,100.00
2023-03-29T21:53:35.935Z,100.00
2023-03-29T21:56:02.107Z,100.00
2023-03-29T21:58:28.334Z,100.00
2023-03-29T22:00:54.550Z,100.00
2023-03-29T22:03:20.883Z,100.00
2023-03-29T22:05:47.109Z,100.00
2023-03-29T22:08:13.326Z,100.00
2023-03-29T22:10:39.552Z,100.00
2023-03-29T22:13:05.734Z,100.00
2023-03-29T22:15:31.905Z,100.00
2023-03-29T22:17:59.714Z,100.00
2023-03-29T22:20:26.194Z,100.00
2023-03-29T22:22:52.395Z,100.00
2023-03-29T22:25:18.625Z,100.00
2023-03-29T22:27:44.781Z,100.00
2023-03-29T22:30:13.921Z,100.00
2023-03-29T22:35:43.828Z,100.00
2023-03-29T22:38:16.168Z,100.00
2023-03-29T22:40:54.055Z,100.00
2023-03-29T22:43:27.572Z,100.00
2023-03-29T22:48:39.571Z,100.00
2023-03-29T22:51:14.798Z,100.00
2023-03-29T22:53:51.695Z,100.00
2023-03-29T22:56:20.279Z,100.00
2023-03-29T23:07:08.459Z,100.00
2023-03-29T23:10:25.994Z,100.00
2023-03-29T23:18:11.623Z,100.00
2023-03-29T23:20:51.570Z,100.00
2023-03-29T23:23:25.974Z,100.00
2023-03-29T23:25:57.999Z,100.00
2023-03-29T23:28:28.956Z,100.00
2023-03-29T23:30:56.351Z,100.00
2023-03-29T23:33:29.197Z,100.00
2023-03-29T23:35:56.664Z,100.00
2023-03-29T23:38:56.071Z,100.00
2023-03-29T23:41:25.893Z,100.00
2023-03-29T23:44:13.964Z,100.00
2023-03-29T23:46:43.220Z,100.00
2023-03-29T23:49:19.548Z,100.00
2023-03-29T23:54:35.863Z,100.00
2023-03-29T23:57:23.610Z,100.00
2023-03-29T23:59:56.670Z,100.00
